createdAt,value
2022-08-21T00:02:17.622Z,78.45
2022-08-21T00:04:57.826Z,60.53
2022-08-21T00:07:26.465Z,3.78
2022-08-21T00:09:55.129Z,30.42
2022-08-21T00:12:23.672Z,3.47
2022-08-21T00:14:56.985Z,44.50
2022-08-21T00:17:26.997Z,67.88
2022-08-21T00:19:55.408Z,21.90
2022-08-21T00:22:25.737Z,101.25
2022-08-21T00:24:54.105Z,111.28
2022-08-21T00:27:25.284Z,119.88
2022-08-21T00:29:54.215Z,51.53
2022-08-21T00:32:27.641Z,39.83
2022-08-21T00:34:58.425Z,25.58
2022-08-21T00:37:30.588Z,5.93
2022-08-21T00:40:05.642Z,6.75
2022-08-21T00:42:33.825Z,3.22
2022-08-21T00:45:02.398Z,45.75
2022-08-21T00:47:31.928Z,92.32
2022-08-21T00:50:00.085Z,3.50
2022-08-21T00:52:30.956Z,80.07
2022-08-21T00:55:00.185Z,80.97
2022-08-21T00:57:33.730Z,3.77
2022-08-21T01:00:03.389Z,63.30
2022-08-21T01:02:33.196Z,2.80
2022-08-21T01:05:01.093Z,5.28
2022-08-21T01:07:29.156Z,65.22
2022-08-21T01:09:57.037Z,67.32
2022-08-21T01:12:28.583Z,2.90
2022-08-21T01:14:59.840Z,50.85
2022-08-21T01:17:29.178Z,20.83
2022-08-21T01:20:01.409Z,2.50
2022-08-21T01:22:30.918Z,71.20
2022-08-21T01:24:58.985Z,2.70
2022-08-21T01:27:27.010Z,74.20
2022-08-21T01:29:59.555Z,2.83
2022-08-21T01:32:27.908Z,54.27
2022-08-21T01:34:56.149Z,2.60
2022-08-21T01:37:24.706Z,66.55
2022-08-21T01:39:54.634Z,49.72
2022-08-21T01:42:22.568Z,117.97
2022-08-21T01:44:51.132Z,115.57
2022-08-21T01:47:23.069Z,70.15
2022-08-21T01:49:54.040Z,101.57
2022-08-21T01:52:24.281Z,81.82
2022-08-21T01:54:55.171Z,83.03
2022-08-21T01:57:26.071Z,47.00
2022-08-21T01:59:56.673Z,11.20
2022-08-21T02:02:24.902Z,3.80
2022-08-21T02:04:53.201Z,7.63
2022-08-21T02:07:28.479Z,73.45
2022-08-21T02:09:56.387Z,11.55
2022-08-21T02:12:25.584Z,11.63
2022-08-21T02:14:56.427Z,45.47
2022-08-21T02:17:24.641Z,40.33
2022-08-21T02:19:52.723Z,24.73
2022-08-21T02:22:21.185Z,77.83
2022-08-21T02:24:55.015Z,28.90
2022-08-21T02:27:26.647Z,24.15
2022-08-21T02:29:56.918Z,8.25
2022-08-21T02:32:25.368Z,70.47
2022-08-21T02:34:53.873Z,2.33
2022-08-21T02:37:21.814Z,61.00
2022-08-21T02:39:50.780Z,2.33
2022-08-21T02:42:19.681Z,4.60
2022-08-21T02:44:51.264Z,76.47
2022-08-21T02:47:19.180Z,63.05
2022-08-21T02:49:47.265Z,125.32
2022-08-21T02:52:15.638Z,74.35
2022-08-21T02:54:44.042Z,74.55
2022-08-21T02:57:12.029Z,4.87
2022-08-21T02:59:40.277Z,26.43
2022-08-21T03:02:09.738Z,68.65
2022-08-21T03:04:43.350Z,73.45
2022-08-21T03:07:14.114Z,46.43
2022-08-21T03:09:50.748Z,29.73
2022-08-21T03:12:24.009Z,90.15
2022-08-21T03:14:52.177Z,92.07
2022-08-21T03:17:29.378Z,51.92
2022-08-21T03:19:59.570Z,65.88
2022-08-21T03:22:27.912Z,42.70
2022-08-21T03:24:59.728Z,74.93
2022-08-21T03:27:28.100Z,52.70
2022-08-21T03:30:00.766Z,17.45
2022-08-21T03:32:31.441Z,74.82
2022-08-21T03:35:01.119Z,26.65
2022-08-21T03:37:29.500Z,11.32
2022-08-21T03:39:58.371Z,32.40
2022-08-21T03:42:26.565Z,26.37
2022-08-21T04:05:14.578Z,80.37
2022-08-21T04:07:44.041Z,48.50
2022-08-21T04:10:13.514Z,42.28
2022-08-21T04:12:49.279Z,48.15
2022-08-21T04:15:17.314Z,87.95
2022-08-21T04:17:45.260Z,58.83
2022-08-21T04:28:08.178Z,61.70
2022-08-21T05:23:36.572Z,111.72
2022-08-21T09:40:01.272Z,37.53
2022-08-21T09:45:12.172Z,7.00
2022-08-21T09:47:42.978Z,7.00
2022-08-21T09:50:15.520Z,6.32
2022-08-21T09:52:49.056Z,7.23
2022-08-21T09:55:52.036Z,6.90
2022-08-21T09:58:21.668Z,90.97
2022-08-21T10:00:59.755Z,162.40
2022-08-21T10:03:28.295Z,7.27
2022-08-21T10:06:00.450Z,6.20
2022-08-21T10:08:30.410Z,6.43
2022-08-21T10:11:06.447Z,7.10
2022-08-21T10:13:45.816Z,13.55
2022-08-21T10:16:24.543Z,92.10
2022-08-21T10:19:08.475Z,127.57
2022-08-21T10:21:42.507Z,6.75
2022-08-21T10:24:38.601Z,6.40
2022-08-21T10:27:16.764Z,33.35
2022-08-21T10:29:54.242Z,66.28
2022-08-21T10:32:40.748Z,195.40
2022-08-21T10:35:13.195Z,207.83
2022-08-21T10:37:49.705Z,12.90
2022-08-21T10:40:23.578Z,124.95
2022-08-21T10:43:10.994Z,162.45
2022-08-21T10:45:46.648Z,234.27
2022-08-21T10:48:20.329Z,267.77
2022-08-21T10:50:51.410Z,163.27
2022-08-21T10:53:48.277Z,263.60
2022-08-21T10:56:20.744Z,207.48
2022-08-21T10:59:06.669Z,190.93
2022-08-21T11:01:45.494Z,210.52
2022-08-21T11:04:18.573Z,223.80
2022-08-21T11:06:50.089Z,257.52
2022-08-21T11:09:22.496Z,285.80
2022-08-21T11:11:59.358Z,345.57
2022-08-21T11:14:49.944Z,353.85
2022-08-21T11:17:22.275Z,414.10
2022-08-21T11:19:54.332Z,137.30
2022-08-21T11:22:26.814Z,33.92
2022-08-21T11:24:59.803Z,3.72
2022-08-21T11:27:34.982Z,134.13
2022-08-21T11:30:06.874Z,370.58
2022-08-21T11:33:08.513Z,382.50
2022-08-21T11:35:40.798Z,391.88
2022-08-21T11:38:24.982Z,416.98
2022-08-21T11:41:06.505Z,435.85
2022-08-21T11:43:38.726Z,411.80
2022-08-21T11:46:16.437Z,382.27
2022-08-21T11:48:59.715Z,366.37
2022-08-21T11:51:35.441Z,363.23
2022-08-21T11:54:32.103Z,366.50
2022-08-21T11:57:03.977Z,364.58
2022-08-21T11:59:40.579Z,375.38
2022-08-21T12:02:14.983Z,350.02
2022-08-21T12:04:47.750Z,362.50
2022-08-21T12:07:18.392Z,386.85
2022-08-21T12:09:56.084Z,421.73
2022-08-21T12:12:29.752Z,355.35
2022-08-21T12:15:18.094Z,382.60
2022-08-21T12:17:57.747Z,386.08
2022-08-21T12:23:48.553Z,340.73
2022-08-21T12:26:24.807Z,382.58
2022-08-21T12:29:10.176Z,245.23
2022-08-21T12:31:54.316Z,317.77
2022-08-21T12:34:24.718Z,386.67
2022-08-21T12:36:58.098Z,271.65
2022-08-21T12:39:29.396Z,339.70
2022-08-21T12:42:02.183Z,378.95
2022-08-21T12:44:40.163Z,395.13
2022-08-21T12:47:15.266Z,411.37
2022-08-21T12:49:50.027Z,434.75
2022-08-21T12:52:22.816Z,404.13
2022-08-21T12:54:50.957Z,293.40
2022-08-21T12:57:24.217Z,391.57
2022-08-21T12:59:59.268Z,394.42
2022-08-21T13:02:35.022Z,307.45
2022-08-21T13:05:06.194Z,321.65
2022-08-21T13:07:39.462Z,307.37
2022-08-21T13:10:18.891Z,329.05
2022-08-21T13:12:50.201Z,345.93
2022-08-21T13:15:33.111Z,235.27
2022-08-21T13:18:04.469Z,278.15
2022-08-21T13:20:35.344Z,294.55
2022-08-21T13:23:05.334Z,311.73
2022-08-21T13:25:39.423Z,380.65
2022-08-21T13:28:12.432Z,348.77
2022-08-21T13:30:47.352Z,102.68
2022-08-21T13:33:18.442Z,230.80
2022-08-21T13:35:51.424Z,195.60
2022-08-21T13:38:27.331Z,199.75
2022-08-21T13:41:00.312Z,183.07
2022-08-21T13:43:30.701Z,195.70
2022-08-21T13:46:00.664Z,197.13
2022-08-21T13:48:30.831Z,174.53
2022-08-21T13:58:30.700Z,110.70
2022-08-21T14:06:02.252Z,115.50
2022-08-21T14:08:35.694Z,116.68
2022-08-21T14:11:07.428Z,124.15
2022-08-21T14:13:40.018Z,121.03
2022-08-21T14:16:22.118Z,131.60
2022-08-21T14:19:17.130Z,130.75
2022-08-21T14:21:48.090Z,108.95
2022-08-21T14:24:28.352Z,109.88
2022-08-21T14:26:59.554Z,121.40
2022-08-21T14:29:34.467Z,113.40
2022-08-21T14:32:21.470Z,114.50
2022-08-21T14:34:50.707Z,101.90
2022-08-21T14:37:19.348Z,103.43
2022-08-21T14:39:47.590Z,109.57
2022-08-21T14:42:18.246Z,111.05
2022-08-21T14:44:49.143Z,115.43
2022-08-21T14:47:18.431Z,112.93
2022-08-21T14:49:46.342Z,98.10
2022-08-21T14:52:14.212Z,103.00
2022-08-21T14:54:42.431Z,90.97
2022-08-21T14:57:13.369Z,90.85
2022-08-21T14:59:44.045Z,105.00
2022-08-21T15:02:12.354Z,90.53
2022-08-21T15:04:42.705Z,96.70
2022-08-21T15:07:10.558Z,94.38
2022-08-21T15:09:38.517Z,100.73
2022-08-21T15:12:08.767Z,113.57
2022-08-21T15:14:38.812Z,133.25
2022-08-21T15:17:09.854Z,147.70
2022-08-21T15:19:43.179Z,132.80
2022-08-21T15:22:19.050Z,134.05
2022-08-21T15:24:58.302Z,131.18
2022-08-21T15:27:26.507Z,138.23
2022-08-21T15:29:55.435Z,153.30
2022-08-21T15:32:25.757Z,150.95
2022-08-21T15:34:54.625Z,122.47
2022-08-21T15:37:25.190Z,119.22
2022-08-21T15:39:55.760Z,120.80
2022-08-21T15:42:27.857Z,113.13
2022-08-21T15:44:59.042Z,101.37
2022-08-21T15:47:33.024Z,97.70
2022-08-21T15:50:01.402Z,80.75
2022-08-21T15:52:30.890Z,67.43
2022-08-21T15:54:58.834Z,78.55
2022-08-21T15:57:27.832Z,77.32
2022-08-21T16:00:04.837Z,73.07
2022-08-21T16:02:41.396Z,75.53
2022-08-21T16:05:11.396Z,71.00
2022-08-21T16:07:42.445Z,79.85
2022-08-21T16:10:11.188Z,86.57
2022-08-21T16:12:43.097Z,89.18
2022-08-21T16:15:20.564Z,89.90
2022-08-21T16:20:43.830Z,106.68
2022-08-21T16:23:39.474Z,102.00
2022-08-21T16:26:33.835Z,90.93
2022-08-21T16:29:04.316Z,92.07
2022-08-21T16:31:33.730Z,95.20
2022-08-21T16:34:03.533Z,101.93
2022-08-21T16:36:31.886Z,102.10
2022-08-21T20:09:55.602Z,180.88
2022-08-21T20:14:55.271Z,166.73
2022-08-21T20:17:25.089Z,153.05
2022-08-21T20:19:55.000Z,161.40
2022-08-21T20:22:25.163Z,134.75
2022-08-21T20:24:55.537Z,131.13
2022-08-21T20:27:26.100Z,149.15
2022-08-21T20:29:55.648Z,119.68
2022-08-21T20:32:24.225Z,129.88
2022-08-21T20:34:55.002Z,137.30
2022-08-21T20:37:37.134Z,115.95
2022-08-21T20:40:10.131Z,124.35
2022-08-21T20:45:33.731Z,131.75
2022-08-21T20:48:04.726Z,134.57
